createdAt,value
2018-08-31T00:02:17.561Z,23.35
2018-08-31T00:04:45.214Z,23.34
2018-08-31T00:07:13.049Z,23.34
2018-08-31T00:09:40.094Z,23.34
2018-08-31T00:12:07.080Z,23.35
2018-08-31T00:14:34.042Z,23.34
2018-08-31T00:19:34.284Z,23.35
2018-08-31T00:22:01.361Z,23.34
2018-08-31T00:24:28.494Z,23.35
2018-08-31T00:26:55.773Z,23.35
2018-08-31T00:29:22.891Z,23.34
2018-08-31T00:31:51.809Z,23.35
2018-08-31T00:34:18.773Z,23.36
2018-08-31T00:36:45.739Z,23.34
2018-08-31T00:39:12.659Z,23.35
2018-08-31T00:41:39.657Z,23.35
2018-08-31T00:44:06.684Z,23.35
2018-08-31T00:46:33.655Z,23.35
2018-08-31T00:49:00.673Z,23.35
2018-08-31T00:51:27.725Z,23.35
2018-08-31T00:53:54.816Z,23.36
2018-08-31T00:56:21.902Z,23.35
2018-08-31T00:58:48.958Z,23.35
2018-08-31T01:01:16.091Z,23.35
2018-08-31T01:03:43.095Z,23.35
2018-08-31T01:06:10.047Z,23.35
2018-08-31T01:08:36.981Z,23.36
2018-08-31T01:11:03.909Z,23.35
2018-08-31T01:13:30.845Z,23.34
2018-08-31T01:15:57.835Z,23.36
2018-08-31T01:18:24.740Z,23.35
2018-08-31T01:20:51.682Z,23.35
2018-08-31T01:23:18.601Z,23.35
2018-08-31T01:25:45.581Z,23.36
2018-08-31T01:28:12.570Z,23.36
2018-08-31T01:30:39.496Z,23.35
2018-08-31T01:33:06.491Z,23.35
2018-08-31T01:35:33.464Z,23.35
2018-08-31T01:38:00.477Z,23.35
2018-08-31T01:40:27.413Z,23.35
2018-08-31T01:42:54.379Z,23.36
2018-08-31T01:45:21.321Z,23.35
2018-08-31T01:47:48.310Z,23.35
2018-08-31T01:50:15.287Z,23.36
2018-08-31T01:52:42.280Z,23.35
2018-08-31T01:55:09.334Z,23.35
2018-08-31T01:57:36.473Z,23.35
2018-08-31T02:00:03.465Z,23.36
2018-08-31T02:02:30.394Z,23.35
2018-08-31T02:04:57.334Z,23.36
2018-08-31T02:07:24.264Z,23.36
2018-08-31T02:09:51.299Z,23.36
2018-08-31T02:12:18.297Z,23.36
2018-08-31T02:14:45.257Z,23.37
2018-08-31T02:17:12.265Z,23.36
2018-08-31T02:19:39.265Z,23.36
2018-08-31T02:22:06.542Z,23.36
2018-08-31T02:24:33.566Z,23.36
2018-08-31T02:27:00.489Z,23.37
2018-08-31T02:29:27.449Z,23.35
2018-08-31T02:31:54.377Z,23.37
2018-08-31T02:34:21.608Z,23.36
2018-08-31T02:36:48.549Z,23.36
2018-08-31T02:39:15.563Z,23.36
2018-08-31T02:41:42.540Z,23.37
2018-08-31T02:44:09.499Z,23.36
2018-08-31T02:46:36.539Z,23.36
2018-08-31T02:49:03.677Z,23.36
2018-08-31T02:51:30.682Z,23.36
2018-08-31T02:53:57.657Z,23.36
2018-08-31T02:56:24.656Z,23.36
2018-08-31T02:58:51.650Z,23.35
2018-08-31T03:01:18.651Z,23.37
2018-08-31T03:03:45.620Z,23.37
2018-08-31T03:06:12.569Z,23.36
2018-08-31T03:08:39.608Z,23.36
2018-08-31T03:11:06.577Z,23.36
2018-08-31T03:13:33.563Z,23.37
2018-08-31T03:16:00.536Z,23.36
2018-08-31T03:18:27.489Z,23.36
2018-08-31T03:20:54.380Z,20.13
2018-08-31T03:23:21.322Z,18.12
2018-08-31T03:25:48.213Z,17.51
2018-08-31T03:28:15.107Z,17.03
2018-08-31T03:30:42.001Z,16.79
2018-08-31T03:33:08.929Z,16.64
2018-08-31T03:35:35.926Z,16.67
2018-08-31T03:38:02.916Z,16.55
2018-08-31T03:40:29.827Z,16.58
2018-08-31T03:42:56.751Z,16.34
2018-08-31T03:45:23.639Z,16.37
2018-08-31T03:47:50.614Z,17.79
2018-08-31T03:50:17.606Z,19.41
2018-08-31T03:52:44.506Z,20.41
2018-08-31T03:55:11.453Z,20.81
2018-08-31T03:57:38.701Z,21.11
2018-08-31T04:00:05.601Z,21.33
2018-08-31T04:02:32.484Z,21.47
2018-08-31T04:04:59.385Z,21.51
2018-08-31T04:07:26.278Z,21.61
2018-08-31T04:09:53.178Z,21.67
2018-08-31T04:12:20.073Z,21.73
2018-08-31T04:14:47.042Z,21.65
2018-08-31T04:17:13.904Z,21.24
2018-08-31T04:19:40.805Z,21.12
2018-08-31T04:22:07.700Z,21.02
2018-08-31T04:24:34.592Z,21.00
2018-08-31T04:27:01.494Z,21.03
2018-08-31T04:29:28.399Z,21.05
2018-08-31T04:31:55.312Z,21.03
2018-08-31T04:34:22.266Z,21.02
2018-08-31T04:36:49.221Z,20.96
2018-08-31T04:39:16.117Z,20.96
2018-08-31T04:41:44.014Z,20.95
2018-08-31T04:44:10.991Z,20.95
2018-08-31T04:46:37.940Z,20.92
2018-08-31T04:49:04.842Z,20.91
2018-08-31T04:51:31.754Z,20.92
2018-08-31T04:53:58.964Z,20.91
2018-08-31T04:56:25.916Z,20.82
2018-08-31T04:58:52.828Z,20.74
2018-08-31T05:01:19.750Z,20.45
2018-08-31T05:03:46.647Z,20.12
2018-08-31T05:06:13.572Z,19.98
2018-08-31T05:08:40.461Z,19.86
2018-08-31T05:11:07.370Z,19.75
2018-08-31T05:13:34.260Z,19.58
2018-08-31T05:16:01.293Z,19.50
2018-08-31T05:18:28.184Z,19.48
2018-08-31T05:20:55.086Z,19.44
2018-08-31T05:23:22.003Z,19.45
2018-08-31T05:25:48.897Z,19.37
2018-08-31T05:28:16.071Z,19.33
2018-08-31T05:30:43.010Z,19.30
2018-08-31T05:33:09.960Z,19.24
2018-08-31T05:35:36.848Z,19.22
2018-08-31T05:38:03.753Z,19.23
2018-08-31T05:40:30.668Z,19.48
2018-08-31T05:42:57.630Z,19.84
2018-08-31T05:45:24.536Z,20.17
2018-08-31T05:47:51.428Z,20.35
2018-08-31T05:50:18.333Z,20.34
2018-08-31T05:52:45.296Z,20.19
2018-08-31T05:55:12.197Z,20.27
2018-08-31T05:57:39.096Z,20.33
2018-08-31T06:00:06.120Z,20.23
2018-08-31T06:02:33.057Z,20.12
2018-08-31T06:04:59.980Z,19.91
2018-08-31T06:07:26.886Z,20.04
2018-08-31T06:09:53.778Z,20.47
2018-08-31T06:12:20.671Z,20.65
2018-08-31T06:14:47.571Z,20.81
2018-08-31T06:17:14.456Z,20.96
2018-08-31T06:19:41.350Z,21.06
2018-08-31T06:22:08.294Z,21.10
2018-08-31T06:24:35.190Z,21.11
2018-08-31T06:27:02.141Z,21.12
2018-08-31T06:29:29.000Z,21.16
2018-08-31T06:31:55.897Z,21.22
2018-08-31T06:34:22.800Z,21.30
2018-08-31T06:36:49.694Z,21.33
2018-08-31T06:39:16.578Z,21.37
2018-08-31T06:41:43.471Z,21.40
2018-08-31T06:44:10.422Z,21.43
2018-08-31T06:46:37.326Z,21.49
2018-08-31T06:49:04.239Z,21.53
2018-08-31T06:51:31.142Z,21.55
2018-08-31T06:53:58.049Z,21.52
2018-08-31T06:56:24.957Z,21.56
2018-08-31T06:58:51.857Z,21.66
2018-08-31T07:01:18.872Z,21.70
2018-08-31T07:03:45.780Z,21.71
2018-08-31T07:06:12.657Z,21.72
2018-08-31T07:08:39.562Z,21.74
2018-08-31T07:11:06.447Z,19.91
2018-08-31T07:13:33.350Z,20.29
2018-08-31T07:16:00.228Z,20.77
2018-08-31T07:18:27.178Z,20.75
2018-08-31T07:20:54.076Z,20.80
2018-08-31T07:23:21.010Z,20.78
2018-08-31T07:25:47.901Z,20.85
2018-08-31T07:28:14.792Z,20.78
2018-08-31T07:30:41.682Z,20.73
2018-08-31T07:33:08.580Z,20.50
2018-08-31T07:35:35.468Z,20.54
2018-08-31T07:38:02.362Z,20.43
2018-08-31T07:40:29.244Z,20.51
2018-08-31T07:42:56.146Z,20.78
2018-08-31T07:45:23.057Z,20.92
2018-08-31T07:47:50.283Z,21.08
2018-08-31T07:50:17.121Z,21.17
2018-08-31T07:52:44.021Z,21.24
2018-08-31T07:55:10.934Z,21.31
2018-08-31T07:57:37.837Z,21.35
2018-08-31T08:00:04.781Z,21.37
2018-08-31T08:02:32.847Z,21.39
2018-08-31T08:04:59.737Z,21.41
2018-08-31T08:07:26.918Z,21.44
2018-08-31T08:09:53.788Z,21.45
2018-08-31T08:12:20.686Z,21.47
2018-08-31T08:14:47.626Z,21.50
2018-08-31T08:17:14.546Z,21.51
2018-08-31T08:19:41.503Z,21.54
2018-08-31T08:22:08.405Z,21.54
2018-08-31T08:24:35.309Z,21.57
2018-08-31T08:27:02.316Z,21.59
2018-08-31T08:29:29.518Z,21.60
2018-08-31T08:31:56.537Z,21.61
2018-08-31T08:34:23.524Z,21.61
2018-08-31T08:36:50.591Z,21.63
2018-08-31T08:39:17.563Z,21.64
2018-08-31T08:41:44.507Z,21.65
2018-08-31T08:44:12.126Z,21.66
2018-08-31T08:46:39.168Z,21.67
2018-08-31T08:49:06.279Z,21.68
2018-08-31T08:51:33.284Z,21.68
2018-08-31T08:54:00.338Z,21.69
2018-08-31T08:56:27.699Z,21.70
2018-08-31T08:58:54.776Z,21.70
2018-08-31T09:01:21.829Z,21.72
2018-08-31T09:03:48.853Z,21.73
2018-08-31T09:06:15.865Z,21.73
2018-08-31T09:08:43.058Z,21.74
2018-08-31T09:11:10.078Z,21.75
2018-08-31T09:13:37.059Z,21.77
2018-08-31T09:16:04.073Z,21.76
2018-08-31T09:18:31.091Z,21.76
2018-08-31T09:20:58.133Z,21.77
2018-08-31T09:23:25.528Z,21.78
2018-08-31T09:25:53.145Z,21.79
2018-08-31T09:28:20.122Z,21.79
2018-08-31T09:30:47.497Z,21.80
2018-08-31T09:33:16.025Z,21.81
2018-08-31T09:35:43.002Z,21.81
2018-08-31T09:38:09.974Z,21.82
2018-08-31T09:40:36.944Z,21.83
2018-08-31T09:43:03.930Z,21.83
2018-08-31T09:45:30.890Z,21.84
2018-08-31T09:47:57.811Z,21.84
2018-08-31T09:50:24.749Z,21.85
2018-08-31T09:52:51.777Z,21.86
2018-08-31T09:55:18.718Z,21.86
2018-08-31T09:57:45.647Z,21.86
2018-08-31T10:00:12.640Z,21.87
2018-08-31T10:02:44.807Z,21.87
2018-08-31T10:05:11.742Z,21.88
2018-08-31T10:07:38.646Z,21.88
2018-08-31T10:10:05.652Z,21.88
2018-08-31T10:12:32.629Z,21.89
2018-08-31T10:14:59.565Z,21.89
2018-08-31T10:17:26.540Z,21.89
2018-08-31T10:19:53.684Z,21.89
2018-08-31T10:22:20.610Z,21.91
2018-08-31T10:24:47.554Z,21.91
2018-08-31T10:27:14.566Z,21.92
2018-08-31T10:29:41.565Z,21.95
2018-08-31T10:32:08.631Z,21.95
2018-08-31T10:34:35.626Z,21.93
2018-08-31T10:37:02.566Z,21.94
2018-08-31T10:39:29.578Z,21.93
2018-08-31T10:41:56.552Z,21.93
2018-08-31T10:44:23.535Z,21.94
2018-08-31T10:46:50.520Z,21.96
2018-08-31T10:49:17.467Z,21.97
2018-08-31T10:51:44.477Z,21.97
2018-08-31T10:54:11.410Z,21.97
2018-08-31T10:56:38.349Z,21.96
2018-08-31T10:59:05.346Z,21.97
2018-08-31T11:01:32.351Z,21.96
2018-08-31T11:03:59.345Z,21.97
2018-08-31T11:06:26.355Z,22.00
2018-08-31T11:08:53.294Z,22.01
2018-08-31T11:11:20.276Z,22.00
2018-08-31T11:13:47.266Z,21.99
2018-08-31T11:16:14.242Z,21.99
2018-08-31T11:18:41.238Z,22.00
2018-08-31T11:21:08.251Z,22.00
2018-08-31T11:23:35.467Z,22.01
2018-08-31T11:26:02.520Z,22.00
2018-08-31T11:28:29.576Z,22.03
2018-08-31T11:30:56.533Z,22.11
2018-08-31T11:33:23.571Z,22.08
2018-08-31T11:35:50.565Z,22.08
2018-08-31T11:38:17.628Z,22.06
2018-08-31T11:40:44.847Z,22.05
2018-08-31T11:43:11.898Z,22.05
2018-08-31T11:45:39.129Z,22.05
2018-08-31T11:48:06.110Z,22.05
2018-08-31T11:50:33.098Z,22.06
2018-08-31T11:53:00.273Z,22.05
2018-08-31T11:55:27.294Z,22.05
2018-08-31T11:57:54.269Z,22.10
2018-08-31T12:00:21.282Z,22.07
2018-08-31T12:02:48.261Z,22.07
2018-08-31T12:05:15.233Z,22.10
2018-08-31T12:07:42.264Z,22.13
2018-08-31T12:10:09.273Z,22.11
2018-08-31T12:12:36.253Z,22.10
2018-08-31T12:15:03.292Z,22.09
2018-08-31T12:17:30.259Z,22.08
2018-08-31T12:19:57.286Z,22.11
2018-08-31T12:22:24.311Z,22.11
2018-08-31T12:24:51.302Z,22.11
2018-08-31T12:27:18.302Z,22.11
2018-08-31T12:29:45.265Z,22.10
2018-08-31T12:32:12.277Z,22.10
2018-08-31T12:34:39.271Z,22.10
2018-08-31T12:37:06.310Z,22.10
2018-08-31T12:39:33.281Z,22.11
2018-08-31T12:42:00.270Z,22.11
2018-08-31T12:44:27.261Z,22.11
2018-08-31T12:46:54.211Z,22.10
2018-08-31T12:49:21.207Z,22.10
2018-08-31T12:51:48.153Z,22.11
2018-08-31T12:54:15.147Z,22.12
2018-08-31T12:56:42.141Z,22.12
2018-08-31T12:59:09.171Z,22.13
2018-08-31T13:01:36.143Z,22.12
2018-08-31T13:04:03.225Z,22.13
2018-08-31T13:06:30.252Z,22.11
2018-08-31T13:08:57.253Z,22.07
2018-08-31T13:11:24.250Z,22.03
2018-08-31T13:13:51.184Z,22.07
2018-08-31T13:16:18.174Z,22.11
2018-08-31T13:18:45.151Z,22.12
2018-08-31T13:21:12.097Z,22.13
2018-08-31T13:23:39.128Z,22.13
2018-08-31T13:26:06.172Z,22.13
2018-08-31T13:28:33.128Z,22.14
2018-08-31T13:31:00.080Z,22.16
2018-08-31T13:33:27.133Z,22.16
2018-08-31T13:35:54.127Z,22.15
2018-08-31T13:38:21.177Z,22.15
2018-08-31T13:40:48.110Z,22.15
2018-08-31T13:43:15.083Z,22.16
2018-08-31T13:45:42.045Z,22.15
2018-08-31T13:48:09.065Z,22.15
2018-08-31T13:50:36.050Z,22.16
2018-08-31T13:53:03.006Z,22.16
2018-08-31T13:55:29.962Z,22.16
2018-08-31T13:57:56.937Z,22.17
2018-08-31T14:00:23.938Z,22.16
2018-08-31T14:02:51.271Z,22.16
2018-08-31T14:05:18.292Z,22.17
2018-08-31T14:07:45.262Z,22.17
2018-08-31T14:10:12.285Z,22.18
2018-08-31T14:12:39.326Z,22.16
2018-08-31T14:15:06.321Z,22.17
2018-08-31T14:17:33.301Z,22.17
2018-08-31T14:20:00.311Z,22.18
2018-08-31T14:22:27.317Z,22.20
2018-08-31T14:24:54.508Z,22.20
2018-08-31T14:27:21.489Z,22.20
2018-08-31T14:29:48.726Z,22.19
2018-08-31T14:32:15.542Z,22.19
2018-08-31T14:34:42.557Z,22.19
2018-08-31T14:37:09.544Z,22.20
2018-08-31T14:39:36.552Z,22.19
2018-08-31T14:42:03.560Z,22.20
2018-08-31T14:44:30.565Z,22.20
2018-08-31T14:46:57.534Z,22.21
2018-08-31T14:49:24.603Z,22.20
2018-08-31T14:51:51.605Z,22.20
2018-08-31T14:54:18.590Z,22.20
2018-08-31T14:56:45.650Z,22.20
2018-08-31T14:59:12.648Z,22.21
2018-08-31T15:01:39.688Z,22.20
2018-08-31T15:04:06.653Z,22.20
2018-08-31T15:06:33.734Z,22.20
2018-08-31T15:09:00.686Z,22.21
2018-08-31T15:11:27.668Z,22.21
2018-08-31T15:13:54.623Z,22.20
2018-08-31T15:16:21.604Z,22.20
2018-08-31T15:18:48.582Z,22.20
2018-08-31T15:21:15.542Z,22.21
2018-08-31T15:23:42.562Z,22.20
2018-08-31T15:26:09.500Z,22.22
2018-08-31T15:28:36.432Z,22.22
2018-08-31T15:31:03.343Z,22.24
2018-08-31T15:33:30.265Z,22.24
2018-08-31T15:35:57.374Z,22.24
2018-08-31T15:38:24.345Z,22.25
2018-08-31T15:40:51.245Z,22.25
2018-08-31T15:43:18.183Z,22.25
2018-08-31T15:45:45.114Z,22.25
2018-08-31T15:48:12.045Z,22.25
2018-08-31T15:50:38.974Z,22.25
2018-08-31T15:53:05.932Z,22.26
2018-08-31T15:55:32.847Z,22.27
2018-08-31T15:57:59.748Z,22.27
2018-08-31T16:00:26.661Z,22.28
2018-08-31T16:02:53.629Z,22.28
2018-08-31T16:05:20.553Z,22.27
2018-08-31T16:07:47.453Z,22.27
2018-08-31T16:10:14.410Z,22.19
2018-08-31T16:12:41.333Z,22.16
2018-08-31T16:15:08.322Z,22.11
2018-08-31T16:17:35.226Z,22.08
2018-08-31T16:20:02.149Z,22.08
2018-08-31T16:22:29.056Z,22.08
2018-08-31T16:24:56.023Z,22.07
2018-08-31T16:27:22.987Z,22.07
2018-08-31T16:29:50.373Z,22.04
2018-08-31T16:32:17.269Z,22.03
2018-08-31T16:34:44.188Z,22.05
2018-08-31T16:37:11.101Z,22.13
2018-08-31T16:39:37.984Z,22.18
2018-08-31T16:42:04.920Z,22.20
2018-08-31T16:44:31.862Z,22.22
2018-08-31T16:46:58.772Z,22.24
2018-08-31T16:49:25.697Z,22.27
2018-08-31T16:51:52.642Z,22.28
2018-08-31T16:54:19.634Z,22.27
2018-08-31T16:56:46.601Z,22.26
2018-08-31T16:59:13.588Z,22.26
2018-08-31T17:01:40.610Z,22.27
2018-08-31T17:04:07.574Z,22.27
2018-08-31T17:06:34.557Z,22.26
2018-08-31T17:09:01.514Z,22.26
2018-08-31T17:11:28.486Z,22.26
2018-08-31T17:13:55.424Z,22.26
2018-08-31T17:16:22.397Z,22.26
2018-08-31T17:18:49.359Z,22.27
2018-08-31T17:21:16.342Z,22.27
2018-08-31T17:23:43.270Z,22.27
2018-08-31T17:26:15.290Z,22.25
2018-08-31T17:28:47.701Z,22.26
2018-08-31T17:31:19.919Z,22.26
2018-08-31T17:33:52.074Z,22.26
2018-08-31T17:36:24.289Z,22.26
2018-08-31T17:38:51.251Z,22.26
2018-08-31T17:41:18.193Z,22.26
2018-08-31T17:43:45.174Z,22.27
2018-08-31T17:46:12.172Z,22.28
2018-08-31T17:48:39.120Z,22.26
2018-08-31T17:51:06.072Z,22.27
2018-08-31T17:53:33.034Z,22.27
2018-08-31T17:55:59.975Z,22.27
2018-08-31T17:58:26.973Z,22.27
2018-08-31T18:00:53.946Z,22.28
2018-08-31T18:03:20.949Z,22.27
2018-08-31T18:05:47.872Z,22.28
2018-08-31T18:08:14.830Z,22.28
2018-08-31T18:10:41.760Z,22.28
2018-08-31T18:13:08.717Z,22.28
2018-08-31T18:15:35.797Z,22.28
2018-08-31T18:18:02.748Z,22.28
2018-08-31T18:20:29.669Z,22.29
2018-08-31T18:22:56.644Z,22.29
2018-08-31T18:25:23.601Z,22.30
2018-08-31T18:27:50.514Z,22.31
2018-08-31T18:30:17.434Z,22.32
2018-08-31T18:32:44.320Z,22.31
2018-08-31T18:35:11.252Z,22.30
2018-08-31T18:37:38.141Z,22.30
2018-08-31T18:40:05.088Z,22.30
2018-08-31T18:42:31.953Z,22.30
2018-08-31T18:44:58.844Z,22.31
2018-08-31T18:47:25.761Z,22.30
2018-08-31T18:49:52.713Z,22.30
2018-08-31T18:52:19.756Z,22.30
2018-08-31T18:54:46.619Z,22.30
2018-08-31T18:57:13.541Z,22.30
2018-08-31T18:59:40.433Z,22.30
2018-08-31T19:02:07.320Z,22.31
2018-08-31T19:04:34.237Z,22.30
2018-08-31T19:07:01.127Z,22.29
2018-08-31T19:09:28.017Z,22.30
2018-08-31T19:11:54.916Z,22.30
2018-08-31T19:14:21.810Z,22.30
2018-08-31T19:16:48.771Z,22.32
2018-08-31T19:19:15.770Z,22.32
2018-08-31T19:21:42.703Z,22.33
2018-08-31T19:24:09.651Z,22.33
2018-08-31T19:26:36.610Z,22.33
2018-08-31T19:29:03.566Z,22.32
2018-08-31T19:31:30.600Z,22.32
2018-08-31T19:33:57.608Z,22.34
2018-08-31T19:36:24.646Z,22.33
2018-08-31T19:38:51.679Z,22.34
2018-08-31T19:41:18.634Z,22.34
2018-08-31T19:43:45.648Z,22.32
2018-08-31T19:46:12.591Z,22.34
2018-08-31T19:48:39.517Z,22.33
2018-08-31T19:51:06.528Z,22.33
2018-08-31T19:53:33.505Z,22.35
2018-08-31T19:56:00.481Z,22.34
2018-08-31T19:58:27.498Z,22.34
2018-08-31T20:00:54.493Z,22.35
2018-08-31T20:03:21.418Z,22.34
2018-08-31T20:05:48.358Z,22.36
2018-08-31T20:08:15.288Z,22.35
2018-08-31T20:10:42.242Z,22.36
2018-08-31T20:13:09.208Z,22.35
2018-08-31T20:15:36.173Z,22.36
2018-08-31T20:18:03.184Z,22.36
2018-08-31T20:20:30.129Z,22.36
2018-08-31T20:22:57.042Z,22.36
2018-08-31T20:25:24.048Z,22.37
2018-08-31T20:27:50.988Z,22.36
2018-08-31T20:30:17.928Z,22.36
2018-08-31T20:32:44.970Z,22.37
2018-08-31T20:35:11.920Z,22.37
2018-08-31T20:37:38.888Z,22.36
2018-08-31T20:40:05.859Z,22.37
2018-08-31T20:42:32.860Z,22.37
2018-08-31T20:44:59.902Z,22.37
2018-08-31T20:47:27.008Z,22.38
2018-08-31T20:49:53.896Z,22.38
2018-08-31T20:52:20.841Z,22.37
2018-08-31T20:54:47.895Z,22.37
2018-08-31T20:57:14.931Z,22.38
2018-08-31T20:59:41.916Z,22.37
2018-08-31T21:02:08.872Z,22.38
2018-08-31T21:04:35.928Z,22.40
2018-08-31T21:07:02.882Z,22.38
2018-08-31T21:09:29.877Z,22.38
2018-08-31T21:11:56.806Z,22.38
2018-08-31T21:14:23.855Z,22.40
2018-08-31T21:16:50.826Z,22.39
2018-08-31T21:19:17.775Z,22.40
2018-08-31T21:21:44.706Z,22.40
2018-08-31T21:24:11.666Z,22.40
2018-08-31T21:26:38.619Z,22.38
2018-08-31T21:29:05.584Z,22.40
2018-08-31T21:31:32.505Z,22.40
2018-08-31T21:33:59.553Z,22.40
2018-08-31T21:36:26.510Z,22.40
2018-08-31T21:38:53.497Z,22.40
2018-08-31T21:41:20.434Z,22.40
2018-08-31T21:43:47.400Z,22.40
2018-08-31T21:46:14.427Z,22.41
2018-08-31T21:48:41.436Z,22.40
2018-08-31T21:51:08.523Z,22.41
2018-08-31T21:53:35.618Z,22.41
2018-08-31T21:56:02.572Z,22.41
2018-08-31T21:58:29.569Z,22.42
2018-08-31T22:01:01.814Z,22.41
2018-08-31T22:03:29.375Z,22.41
2018-08-31T22:05:56.379Z,22.41
2018-08-31T22:08:23.452Z,22.44
2018-08-31T22:10:50.394Z,22.43
2018-08-31T22:13:17.285Z,22.43
2018-08-31T22:15:44.182Z,22.43
2018-08-31T22:18:11.089Z,22.43
2018-08-31T22:20:37.984Z,22.43
2018-08-31T22:23:04.864Z,22.43
2018-08-31T22:25:31.761Z,22.44
2018-08-31T22:27:58.677Z,22.44
2018-08-31T22:30:25.584Z,22.45
2018-08-31T22:32:52.508Z,22.44
2018-08-31T22:35:19.414Z,22.44
2018-08-31T22:37:46.317Z,22.44
2018-08-31T22:40:13.223Z,22.43
2018-08-31T22:42:40.140Z,22.44
2018-08-31T22:45:11.282Z,22.44
2018-08-31T22:47:38.287Z,22.44
2018-08-31T22:50:05.872Z,22.44
2018-08-31T22:52:32.861Z,22.45
2018-08-31T22:54:59.837Z,22.44
2018-08-31T22:57:26.854Z,22.45
2018-08-31T22:59:53.812Z,22.45
2018-08-31T23:02:20.744Z,22.44
2018-08-31T23:04:47.721Z,22.45
2018-08-31T23:07:20.110Z,22.45
2018-08-31T23:09:47.130Z,22.45
2018-08-31T23:12:14.153Z,22.45
2018-08-31T23:14:41.145Z,22.45
2018-08-31T23:17:08.140Z,22.45
2018-08-31T23:19:35.247Z,22.45
2018-08-31T23:22:02.918Z,22.46
2018-08-31T23:24:29.945Z,22.45
2018-08-31T23:26:56.910Z,22.41
2018-08-31T23:29:23.916Z,22.45
2018-08-31T23:31:50.950Z,22.46
2018-08-31T23:34:17.930Z,22.45
2018-08-31T23:36:45.748Z,22.46
2018-08-31T23:39:12.752Z,22.46
2018-08-31T23:41:39.773Z,22.45
2018-08-31T23:44:06.877Z,22.47
2018-08-31T23:46:33.825Z,22.45
2018-08-31T23:49:00.930Z,22.46
2018-08-31T23:51:27.962Z,22.39
2018-08-31T23:53:54.994Z,22.46
2018-08-31T23:56:21.956Z,22.46
2018-08-31T23:58:48.917Z,22.47
